sensor_id;sensor_type;location;lat;lon;timestamp;temperature;humidity
32965;DHT22;19317;48.226;11.686;2023-05-23T00:03:34;18.20;99.90
32965;DHT22;19317;48.226;11.686;2023-05-23T00:08:24;18.20;99.90
32965;DHT22;19317;48.226;11.686;2023-05-23T00:13:15;18.10;99.90
32965;DHT22;19317;48.226;11.686;2023-05-23T00:18:05;17.90;99.90
32965;DHT22;19317;48.226;11.686;2023-05-23T00:22:56;17.80;99.90
32965;DHT22;19317;48.226;11.686;2023-05-23T00:27:46;17.70;99.90
32965;DHT22;19317;48.226;11.686;2023-05-23T00:32:37;17.60;99.90
32965;DHT22;19317;48.226;11.686;2023-05-23T00:37:27;17.60;99.90
32965;DHT22;19317;48.226;11.686;2023-05-23T00:42:18;17.60;99.90
32965;DHT22;19317;48.226;11.686;2023-05-23T00:47:08;17.50;99.90
32965;DHT22;19317;48.226;11.686;2023-05-23T00:51:59;17.50;99.90
32965;DHT22;19317;48.226;11.686;2023-05-23T00:56:49;17.50;99.90
32965;DHT22;19317;48.226;11.686;2023-05-23T01:01:40;17.50;99.90
32965;DHT22;19317;48.226;11.686;2023-05-23T01:06:31;17.50;99.90
32965;DHT22;19317;48.226;11.686;2023-05-23T01:11:42;17.50;99.90
32965;DHT22;19317;48.226;11.686;2023-05-23T01:16:54;17.50;99.90
32965;DHT22;19317;48.226;11.686;2023-05-23T01:21:52;17.40;99.90
32965;DHT22;19317;48.226;11.686;2023-05-23T01:32:09;17.40;99.90
32965;DHT22;19317;48.226;11.686;2023-05-23T01:37:01;17.30;99.90
32965;DHT22;19317;48.226;11.686;2023-05-23T01:41:52;17.30;99.90
32965;DHT22;19317;48.226;11.686;2023-05-23T01:46:43;17.20;99.90
32965;DHT22;19317;48.226;11.686;2023-05-23T01:51:35;17.30;99.90
32965;DHT22;19317;48.226;11.686;2023-05-23T01:56:27;17.20;99.90
32965;DHT22;19317;48.226;11.686;2023-05-23T02:01:17;17.20;99.90
32965;DHT22;19317;48.226;11.686;2023-05-23T02:06:08;17.10;99.90
32965;DHT22;19317;48.226;11.686;2023-05-23T02:10:59;17.00;99.90
32965;DHT22;19317;48.226;11.686;2023-05-23T02:15:49;16.90;99.90
32965;DHT22;19317;48.226;11.686;2023-05-23T02:20:40;16.80;99.90
32965;DHT22;19317;48.226;11.686;2023-05-23T02:25:30;16.80;99.90
32965;DHT22;19317;48.226;11.686;2023-05-23T02:30:20;16.70;99.90
32965;DHT22;19317;48.226;11.686;2023-05-23T02:35:11;16.70;99.90
32965;DHT22;19317;48.226;11.686;2023-05-23T02:40:02;16.60;99.90
32965;DHT22;19317;48.226;11.686;2023-05-23T02:44:52;16.60;99.90
32965;DHT22;19317;48.226;11.686;2023-05-23T02:49:43;16.50;99.90
32965;DHT22;19317;48.226;11.686;2023-05-23T02:54:33;16.40;99.90
32965;DHT22;19317;48.226;11.686;2023-05-23T02:59:24;16.30;99.90
32965;DHT22;19317;48.226;11.686;2023-05-23T03:04:14;16.30;99.90
32965;DHT22;19317;48.226;11.686;2023-05-23T03:09:05;16.30;99.90
32965;DHT22;19317;48.226;11.686;2023-05-23T03:13:55;16.20;99.90
32965;DHT22;19317;48.226;11.686;2023-05-23T03:18:46;16.20;99.90
32965;DHT22;19317;48.226;11.686;2023-05-23T03:23:36;16.20;99.90
32965;DHT22;19317;48.226;11.686;2023-05-23T03:28:26;16.10;99.90
32965;DHT22;19317;48.226;11.686;2023-05-23T03:33:17;16.20;99.90
32965;DHT22;19317;48.226;11.686;2023-05-23T03:38:07;16.10;99.90
32965;DHT22;19317;48.226;11.686;2023-05-23T03:43:05;16.00;99.90
32965;DHT22;19317;48.226;11.686;2023-05-23T03:47:56;16.00;99.90
32965;DHT22;19317;48.226;11.686;2023-05-23T03:52:46;16.00;99.90
32965;DHT22;19317;48.226;11.686;2023-05-23T03:57:37;15.90;99.90
32965;DHT22;19317;48.226;11.686;2023-05-23T04:02:27;15.90;99.90
32965;DHT22;19317;48.226;11.686;2023-05-23T04:07:18;16.00;99.90
32965;DHT22;19317;48.226;11.686;2023-05-23T04:12:08;15.90;99.90
32965;DHT22;19317;48.226;11.686;2023-05-23T04:16:59;15.90;99.90
32965;DHT22;19317;48.226;11.686;2023-05-23T04:21:49;15.90;99.90
32965;DHT22;19317;48.226;11.686;2023-05-23T04:26:40;15.90;99.90
32965;DHT22;19317;48.226;11.686;2023-05-23T04:31:30;15.90;99.90
32965;DHT22;19317;48.226;11.686;2023-05-23T04:36:20;15.90;99.90
32965;DHT22;19317;48.226;11.686;2023-05-23T04:41:11;15.90;99.90
32965;DHT22;19317;48.226;11.686;2023-05-23T04:46:02;16.10;99.90
32965;DHT22;19317;48.226;11.686;2023-05-23T04:50:53;16.10;99.90
32965;DHT22;19317;48.226;11.686;2023-05-23T04:55:43;16.10;99.90
32965;DHT22;19317;48.226;11.686;2023-05-23T05:00:34;16.10;99.90
32965;DHT22;19317;48.226;11.686;2023-05-23T05:05:24;16.20;99.90
32965;DHT22;19317;48.226;11.686;2023-05-23T05:10:14;16.20;99.90
32965;DHT22;19317;48.226;11.686;2023-05-23T05:15:05;16.20;99.90
32965;DHT22;19317;48.226;11.686;2023-05-23T05:19:56;16.30;99.90
32965;DHT22;19317;48.226;11.686;2023-05-23T05:24:46;16.30;99.90
32965;DHT22;19317;48.226;11.686;2023-05-23T05:29:37;16.50;99.90
32965;DHT22;19317;48.226;11.686;2023-05-23T05:34:27;16.60;99.90
32965;DHT22;19317;48.226;11.686;2023-05-23T05:39:18;16.80;99.90
32965;DHT22;19317;48.226;11.686;2023-05-23T05:44:08;16.90;99.90
32965;DHT22;19317;48.226;11.686;2023-05-23T05:48:59;17.00;99.90
32965;DHT22;19317;48.226;11.686;2023-05-23T05:53:49;17.10;99.90
32965;DHT22;19317;48.226;11.686;2023-05-23T05:58:40;17.10;99.90
32965;DHT22;19317;48.226;11.686;2023-05-23T06:03:31;17.20;99.90
32965;DHT22;19317;48.226;11.686;2023-05-23T06:08:22;17.40;99.90
32965;DHT22;19317;48.226;11.686;2023-05-23T06:13:12;17.10;99.90
32965;DHT22;19317;48.226;11.686;2023-05-23T06:18:02;17.20;99.90
32965;DHT22;19317;48.226;11.686;2023-05-23T06:22:53;17.40;99.90
32965;DHT22;19317;48.226;11.686;2023-05-23T06:27:43;17.50;99.90
32965;DHT22;19317;48.226;11.686;2023-05-23T06:32:34;17.40;99.90
32965;DHT22;19317;48.226;11.686;2023-05-23T06:37:24;17.50;99.90
32965;DHT22;19317;48.226;11.686;2023-05-23T06:42:15;17.70;99.90
32965;DHT22;19317;48.226;11.686;2023-05-23T06:47:05;17.50;99.90
32965;DHT22;19317;48.226;11.686;2023-05-23T06:51:56;17.50;99.90
32965;DHT22;19317;48.226;11.686;2023-05-23T06:56:46;17.60;99.90
32965;DHT22;19317;48.226;11.686;2023-05-23T07:01:37;17.50;99.90
32965;DHT22;19317;48.226;11.686;2023-05-23T07:06:27;17.60;99.90
32965;DHT22;19317;48.226;11.686;2023-05-23T07:11:20;17.90;99.90
32965;DHT22;19317;48.226;11.686;2023-05-23T07:16:10;17.70;99.90
32965;DHT22;19317;48.226;11.686;2023-05-23T07:21:01;17.70;99.90
32965;DHT22;19317;48.226;11.686;2023-05-23T07:25:51;17.80;99.90
32965;DHT22;19317;48.226;11.686;2023-05-23T07:30:42;18.00;99.90
32965;DHT22;19317;48.226;11.686;2023-05-23T07:35:32;18.00;99.90
32965;DHT22;19317;48.226;11.686;2023-05-23T07:40:23;18.00;99.90
32965;DHT22;19317;48.226;11.686;2023-05-23T07:45:13;18.00;99.90
32965;DHT22;19317;48.226;11.686;2023-05-23T07:50:05;18.10;99.90
32965;DHT22;19317;48.226;11.686;2023-05-23T07:54:57;17.90;99.90
32965;DHT22;19317;48.226;11.686;2023-05-23T07:59:47;18.10;99.90
32965;DHT22;19317;48.226;11.686;2023-05-23T08:04:38;18.40;99.90
32965;DHT22;19317;48.226;11.686;2023-05-23T08:09:28;18.10;99.90
32965;DHT22;19317;48.226;11.686;2023-05-23T08:14:19;18.30;99.90
32965;DHT22;19317;48.226;11.686;2023-05-23T08:19:09;18.20;99.90
32965;DHT22;19317;48.226;11.686;2023-05-23T08:24:00;18.30;99.90
32965;DHT22;19317;48.226;11.686;2023-05-23T08:28:51;18.30;99.90
32965;DHT22;19317;48.226;11.686;2023-05-23T08:33:42;18.10;99.90
32965;DHT22;19317;48.226;11.686;2023-05-23T08:38:32;18.30;99.90
32965;DHT22;19317;48.226;11.686;2023-05-23T08:43:23;18.20;99.90
32965;DHT22;19317;48.226;11.686;2023-05-23T08:48:15;18.00;99.90
32965;DHT22;19317;48.226;11.686;2023-05-23T08:53:08;18.30;99.90
32965;DHT22;19317;48.226;11.686;2023-05-23T08:57:59;18.50;99.90
32965;DHT22;19317;48.226;11.686;2023-05-23T09:02:49;18.70;99.90
32965;DHT22;19317;48.226;11.686;2023-05-23T09:07:41;18.70;99.90
32965;DHT22;19317;48.226;11.686;2023-05-23T09:12:33;18.80;99.90
32965;DHT22;19317;48.226;11.686;2023-05-23T09:17:24;18.90;99.90
32965;DHT22;19317;48.226;11.686;2023-05-23T09:22:14;18.90;99.90
32965;DHT22;19317;48.226;11.686;2023-05-23T09:27:05;19.00;99.90
32965;DHT22;19317;48.226;11.686;2023-05-23T09:32:15;19.10;99.90
32965;DHT22;19317;48.226;11.686;2023-05-23T09:37:06;19.20;99.90
32965;DHT22;19317;48.226;11.686;2023-05-23T09:41:59;19.10;99.90
32965;DHT22;19317;48.226;11.686;2023-05-23T09:46:50;19.00;99.90
32965;DHT22;19317;48.226;11.686;2023-05-23T09:51:40;19.10;99.90
32965;DHT22;19317;48.226;11.686;2023-05-23T09:56:32;19.30;99.90
32965;DHT22;19317;48.226;11.686;2023-05-23T10:01:24;19.40;99.90
32965;DHT22;19317;48.226;11.686;2023-05-23T10:16:49;19.00;99.90
32965;DHT22;19317;48.226;11.686;2023-05-23T10:21:49;19.60;99.90
32965;DHT22;19317;48.226;11.686;2023-05-23T10:26:42;19.10;99.90
32965;DHT22;19317;48.226;11.686;2023-05-23T10:31:35;19.60;99.90
32965;DHT22;19317;48.226;11.686;2023-05-23T10:36:32;19.80;99.90
32965;DHT22;19317;48.226;11.686;2023-05-23T10:41:30;19.80;99.90
32965;DHT22;19317;48.226;11.686;2023-05-23T10:46:22;19.40;99.90
32965;DHT22;19317;48.226;11.686;2023-05-23T10:51:14;19.30;99.90
32965;DHT22;19317;48.226;11.686;2023-05-23T10:56:06;19.50;99.90
32965;DHT22;19317;48.226;11.686;2023-05-23T11:01:00;19.80;99.90
32965;DHT22;19317;48.226;11.686;2023-05-23T11:05:54;20.00;99.90
32965;DHT22;19317;48.226;11.686;2023-05-23T11:10:54;20.30;99.90
32965;DHT22;19317;48.226;11.686;2023-05-23T11:15:45;20.70;99.90
32965;DHT22;19317;48.226;11.686;2023-05-23T11:20:36;20.50;99.90
32965;DHT22;19317;48.226;11.686;2023-05-23T11:25:48;20.40;99.90
32965;DHT22;19317;48.226;11.686;2023-05-23T11:30:40;20.00;99.90
32965;DHT22;19317;48.226;11.686;2023-05-23T11:35:30;20.10;99.90
32965;DHT22;19317;48.226;11.686;2023-05-23T11:40:30;20.30;99.90
32965;DHT22;19317;48.226;11.686;2023-05-23T11:45:22;20.30;99.90
32965;DHT22;19317;48.226;11.686;2023-05-23T11:50:14;20.10;99.90
32965;DHT22;19317;48.226;11.686;2023-05-23T11:55:07;20.30;99.90
32965;DHT22;19317;48.226;11.686;2023-05-23T11:59:57;20.70;99.90
32965;DHT22;19317;48.226;11.686;2023-05-23T12:04:48;20.60;99.90
32965;DHT22;19317;48.226;11.686;2023-05-23T12:09:44;20.60;99.90
32965;DHT22;19317;48.226;11.686;2023-05-23T12:14:35;21.00;99.90
32965;DHT22;19317;48.226;11.686;2023-05-23T12:19:25;21.00;99.90
32965;DHT22;19317;48.226;11.686;2023-05-23T12:24:17;20.70;99.90
32965;DHT22;19317;48.226;11.686;2023-05-23T12:29:08;20.50;99.90
32965;DHT22;19317;48.226;11.686;2023-05-23T12:33:59;20.20;99.90
32965;DHT22;19317;48.226;11.686;2023-05-23T12:38:49;20.60;99.90
32965;DHT22;19317;48.226;11.686;2023-05-23T12:43:40;20.40;99.90
32965;DHT22;19317;48.226;11.686;2023-05-23T12:48:30;20.90;99.90
32965;DHT22;19317;48.226;11.686;2023-05-23T12:53:20;20.80;99.90
32965;DHT22;19317;48.226;11.686;2023-05-23T12:58:11;20.80;99.90
32965;DHT22;19317;48.226;11.686;2023-05-23T13:03:01;20.90;99.90
32965;DHT22;19317;48.226;11.686;2023-05-23T13:07:52;20.70;99.90
32965;DHT22;19317;48.226;11.686;2023-05-23T13:12:42;20.70;99.90
32965;DHT22;19317;48.226;11.686;2023-05-23T13:17:33;20.60;99.90
32965;DHT22;19317;48.226;11.686;2023-05-23T13:22:23;20.40;99.90
32965;DHT22;19317;48.226;11.686;2023-05-23T13:27:14;20.80;99.90
32965;DHT22;19317;48.226;11.686;2023-05-23T13:32:04;21.00;99.90
32965;DHT22;19317;48.226;11.686;2023-05-23T13:36:55;21.20;99.90
32965;DHT22;19317;48.226;11.686;2023-05-23T13:41:45;21.00;99.90
32965;DHT22;19317;48.226;11.686;2023-05-23T13:46:36;20.80;99.90
32965;DHT22;19317;48.226;11.686;2023-05-23T13:51:27;21.00;99.90
32965;DHT22;19317;48.226;11.686;2023-05-23T13:56:17;21.80;99.90
32965;DHT22;19317;48.226;11.686;2023-05-23T14:01:08;21.40;99.90
32965;DHT22;19317;48.226;11.686;2023-05-23T14:05:58;21.10;99.90
32965;DHT22;19317;48.226;11.686;2023-05-23T14:10:48;21.40;99.90
32965;DHT22;19317;48.226;11.686;2023-05-23T14:15:39;21.80;99.90
32965;DHT22;19317;48.226;11.686;2023-05-23T14:20:29;21.80;99.90
32965;DHT22;19317;48.226;11.686;2023-05-23T14:25:20;21.40;99.90
32965;DHT22;19317;48.226;11.686;2023-05-23T14:30:10;21.90;99.90
32965;DHT22;19317;48.226;11.686;2023-05-23T14:35:01;21.50;99.90
32965;DHT22;19317;48.226;11.686;2023-05-23T14:39:51;21.50;99.90
32965;DHT22;19317;48.226;11.686;2023-05-23T14:44:42;21.20;99.90
32965;DHT22;19317;48.226;11.686;2023-05-23T14:49:32;20.80;99.90
32965;DHT22;19317;48.226;11.686;2023-05-23T14:54:23;21.00;99.90
32965;DHT22;19317;48.226;11.686;2023-05-23T14:59:13;20.50;99.90
32965;DHT22;19317;48.226;11.686;2023-05-23T15:04:04;20.30;99.90
32965;DHT22;19317;48.226;11.686;2023-05-23T15:08:54;20.60;99.90
32965;DHT22;19317;48.226;11.686;2023-05-23T15:13:44;20.40;99.90
32965;DHT22;19317;48.226;11.686;2023-05-23T15:18:35;20.40;99.90
32965;DHT22;19317;48.226;11.686;2023-05-23T15:23:25;20.50;99.90
32965;DHT22;19317;48.226;11.686;2023-05-23T15:28:16;20.30;99.90
32965;DHT22;19317;48.226;11.686;2023-05-23T15:33:06;20.20;99.90
32965;DHT22;19317;48.226;11.686;2023-05-23T15:37:57;20.20;99.90
32965;DHT22;19317;48.226;11.686;2023-05-23T15:42:47;20.00;99.90
32965;DHT22;19317;48.226;11.686;2023-05-23T15:47:38;20.00;99.90
32965;DHT22;19317;48.226;11.686;2023-05-23T15:52:28;20.00;99.90
32965;DHT22;19317;48.226;11.686;2023-05-23T15:57:18;20.00;99.90
32965;DHT22;19317;48.226;11.686;2023-05-23T16:02:09;20.00;99.90
32965;DHT22;19317;48.226;11.686;2023-05-23T16:06:59;20.00;99.90
32965;DHT22;19317;48.226;11.686;2023-05-23T16:11:50;20.20;99.90
32965;DHT22;19317;48.226;11.686;2023-05-23T16:16:41;20.10;99.90
32965;DHT22;19317;48.226;11.686;2023-05-23T16:21:32;19.70;99.90
32965;DHT22;19317;48.226;11.686;2023-05-23T16:26:22;19.60;99.90
32965;DHT22;19317;48.226;11.686;2023-05-23T16:31:14;19.60;99.90
32965;DHT22;19317;48.226;11.686;2023-05-23T16:36:04;19.60;99.90
32965;DHT22;19317;48.226;11.686;2023-05-23T16:40:55;19.50;99.90
32965;DHT22;19317;48.226;11.686;2023-05-23T16:45:45;19.20;99.90
32965;DHT22;19317;48.226;11.686;2023-05-23T16:50:36;19.30;99.90
32965;DHT22;19317;48.226;11.686;2023-05-23T16:55:27;19.20;99.90
32965;DHT22;19317;48.226;11.686;2023-05-23T17:00:17;19.00;99.90
32965;DHT22;19317;48.226;11.686;2023-05-23T17:05:08;18.80;99.90
32965;DHT22;19317;48.226;11.686;2023-05-23T17:09:58;19.10;99.90
32965;DHT22;19317;48.226;11.686;2023-05-23T17:14:49;18.90;99.90
32965;DHT22;19317;48.226;11.686;2023-05-23T17:19:39;18.80;99.90
32965;DHT22;19317;48.226;11.686;2023-05-23T17:24:30;18.90;99.90
32965;DHT22;19317;48.226;11.686;2023-05-23T17:29:20;18.50;99.90
32965;DHT22;19317;48.226;11.686;2023-05-23T17:34:10;18.70;99.90
32965;DHT22;19317;48.226;11.686;2023-05-23T17:39:01;18.70;99.90
32965;DHT22;19317;48.226;11.686;2023-05-23T17:43:51;18.60;99.90
32965;DHT22;19317;48.226;11.686;2023-05-23T17:48:42;18.40;99.90
32965;DHT22;19317;48.226;11.686;2023-05-23T17:53:32;18.50;99.90
32965;DHT22;19317;48.226;11.686;2023-05-23T17:58:23;18.30;99.90
32965;DHT22;19317;48.226;11.686;2023-05-23T18:03:13;18.30;99.90
32965;DHT22;19317;48.226;11.686;2023-05-23T18:08:03;18.20;99.90
32965;DHT22;19317;48.226;11.686;2023-05-23T18:12:54;18.20;99.90
32965;DHT22;19317;48.226;11.686;2023-05-23T18:17:45;18.30;99.90
32965;DHT22;19317;48.226;11.686;2023-05-23T18:22:35;18.30;99.90
32965;DHT22;19317;48.226;11.686;2023-05-23T18:27:26;18.30;99.90
32965;DHT22;19317;48.226;11.686;2023-05-23T18:32:16;18.20;99.90
32965;DHT22;19317;48.226;11.686;2023-05-23T18:37:07;18.10;99.90
32965;DHT22;19317;48.226;11.686;2023-05-23T18:41:57;18.00;99.90
32965;DHT22;19317;48.226;11.686;2023-05-23T18:46:47;18.00;99.90
32965;DHT22;19317;48.226;11.686;2023-05-23T18:51:38;17.90;99.90
32965;DHT22;19317;48.226;11.686;2023-05-23T18:56:29;18.00;99.90
32965;DHT22;19317;48.226;11.686;2023-05-23T19:01:19;17.80;99.90
32965;DHT22;19317;48.226;11.686;2023-05-23T19:06:10;17.70;99.90
32965;DHT22;19317;48.226;11.686;2023-05-23T19:11:00;17.80;99.90
32965;DHT22;19317;48.226;11.686;2023-05-23T19:15:51;17.60;99.90
32965;DHT22;19317;48.226;11.686;2023-05-23T19:20:41;17.70;99.90
32965;DHT22;19317;48.226;11.686;2023-05-23T19:25:32;17.60;99.90
32965;DHT22;19317;48.226;11.686;2023-05-23T19:30:22;17.50;99.90
32965;DHT22;19317;48.226;11.686;2023-05-23T19:35:13;17.80;99.90
32965;DHT22;19317;48.226;11.686;2023-05-23T19:40:04;17.50;99.90
32965;DHT22;19317;48.226;11.686;2023-05-23T19:44:54;17.40;99.90
32965;DHT22;19317;48.226;11.686;2023-05-23T19:49:45;17.10;99.90
32965;DHT22;19317;48.226;11.686;2023-05-23T19:54:35;17.00;99.90
32965;DHT22;19317;48.226;11.686;2023-05-23T19:59:26;16.90;99.90
32965;DHT22;19317;48.226;11.686;2023-05-23T20:04:16;16.90;99.90
32965;DHT22;19317;48.226;11.686;2023-05-23T20:09:06;16.90;99.90
32965;DHT22;19317;48.226;11.686;2023-05-23T20:13:57;16.70;99.90
32965;DHT22;19317;48.226;11.686;2023-05-23T20:18:47;16.90;99.90
32965;DHT22;19317;48.226;11.686;2023-05-23T20:23:38;16.90;99.90
32965;DHT22;19317;48.226;11.686;2023-05-23T20:28:28;16.80;99.90
32965;DHT22;19317;48.226;11.686;2023-05-23T20:33:19;16.50;99.90
32965;DHT22;19317;48.226;11.686;2023-05-23T20:38:09;16.30;99.90
32965;DHT22;19317;48.226;11.686;2023-05-23T20:43:00;16.30;99.90
32965;DHT22;19317;48.226;11.686;2023-05-23T20:47:50;16.10;99.90
32965;DHT22;19317;48.226;11.686;2023-05-23T20:52:41;16.10;99.90
32965;DHT22;19317;48.226;11.686;2023-05-23T20:57:31;16.00;99.90
32965;DHT22;19317;48.226;11.686;2023-05-23T21:02:21;16.10;99.90
32965;DHT22;19317;48.226;11.686;2023-05-23T21:07:12;15.90;99.90
32965;DHT22;19317;48.226;11.686;2023-05-23T21:12:02;16.10;99.90
32965;DHT22;19317;48.226;11.686;2023-05-23T21:16:53;15.90;99.90
32965;DHT22;19317;48.226;11.686;2023-05-23T21:21:43;15.70;99.90
32965;DHT22;19317;48.226;11.686;2023-05-23T21:26:34;15.60;99.90
32965;DHT22;19317;48.226;11.686;2023-05-23T21:31:24;15.50;99.90
32965;DHT22;19317;48.226;11.686;2023-05-23T21:36:15;15.60;99.90
32965;DHT22;19317;48.226;11.686;2023-05-23T21:41:05;15.20;99.90
32965;DHT22;19317;48.226;11.686;2023-05-23T21:45:56;15.30;99.90
32965;DHT22;19317;48.226;11.686;2023-05-23T21:50:46;15.20;99.90
32965;DHT22;19317;48.226;11.686;2023-05-23T21:55:37;15.40;99.90
32965;DHT22;19317;48.226;11.686;2023-05-23T22:00:27;15.50;99.90
32965;DHT22;19317;48.226;11.686;2023-05-23T22:05:18;15.50;99.90
32965;DHT22;19317;48.226;11.686;2023-05-23T22:10:08;15.50;99.90
32965;DHT22;19317;48.226;11.686;2023-05-23T22:14:59;15.40;99.90
32965;DHT22;19317;48.226;11.686;2023-05-23T22:19:49;15.50;99.90
32965;DHT22;19317;48.226;11.686;2023-05-23T22:24:40;15.90;99.90
32965;DHT22;19317;48.226;11.686;2023-05-23T22:29:30;16.00;99.90
32965;DHT22;19317;48.226;11.686;2023-05-23T22:34:21;15.40;99.90
32965;DHT22;19317;48.226;11.686;2023-05-23T22:39:11;15.30;99.90
32965;DHT22;19317;48.226;11.686;2023-05-23T22:44:01;15.40;99.90
32965;DHT22;19317;48.226;11.686;2023-05-23T22:48:52;15.30;99.90
32965;DHT22;19317;48.226;11.686;2023-05-23T22:53:42;14.90;99.90
32965;DHT22;19317;48.226;11.686;2023-05-23T22:58:33;15.20;99.90
32965;DHT22;19317;48.226;11.686;2023-05-23T23:03:23;14.80;99.90
32965;DHT22;19317;48.226;11.686;2023-05-23T23:08:14;14.20;99.90
32965;DHT22;19317;48.226;11.686;2023-05-23T23:13:04;14.30;99.90
32965;DHT22;19317;48.226;11.686;2023-05-23T23:17:55;14.40;99.90
32965;DHT22;19317;48.226;11.686;2023-05-23T23:22:45;14.50;99.90
32965;DHT22;19317;48.226;11.686;2023-05-23T23:27:36;15.10;99.90
32965;DHT22;19317;48.226;11.686;2023-05-23T23:32:27;14.60;99.90
32965;DHT22;19317;48.226;11.686;2023-05-23T23:37:17;14.70;99.90
32965;DHT22;19317;48.226;11.686;2023-05-23T23:42:08;14.70;99.90
32965;DHT22;19317;48.226;11.686;2023-05-23T23:46:58;14.70;99.90
32965;DHT22;19317;48.226;11.686;2023-05-23T23:51:49;14.20;99.90
32965;DHT22;19317;48.226;11.686;2023-05-23T23:56:39;14.20;99.90
